createdAt,value
2023-02-08T01:32:29.110Z,94.80
2023-02-08T01:35:30.703Z,94.32
2023-02-08T01:38:34.700Z,94.26
2023-02-08T01:41:38.724Z,94.28
2023-02-08T01:45:17.685Z,94.12
2023-02-08T01:48:43.692Z,93.93
2023-02-08T01:51:47.724Z,93.74
2023-02-08T01:54:53.741Z,93.80
2023-02-08T01:57:55.758Z,93.86
2023-02-08T02:01:02.761Z,93.81
2023-02-08T02:04:07.217Z,93.62
2023-02-08T02:07:10.763Z,93.82
2023-02-08T02:10:17.710Z,93.53
2023-02-08T02:13:27.763Z,93.73
2023-02-08T02:16:29.781Z,93.94
2023-02-08T02:19:38.813Z,93.83
2023-02-08T02:22:46.817Z,93.96
2023-02-08T02:26:01.014Z,94.01
2023-02-08T02:29:18.768Z,93.72
2023-02-08T02:32:46.787Z,94.08
2023-02-08T02:36:11.831Z,94.32
2023-02-08T02:39:35.774Z,94.45
2023-02-08T02:43:20.928Z,94.63
2023-02-08T02:46:49.728Z,94.61
2023-02-08T02:50:05.857Z,94.41
2023-02-08T02:53:12.837Z,94.35
2023-02-08T02:56:19.891Z,94.37
2023-02-08T02:59:28.811Z,94.16
2023-02-08T03:02:30.846Z,94.15
2023-02-08T03:05:35.858Z,94.14
2023-02-08T03:08:58.829Z,94.35
2023-02-08T03:12:08.820Z,94.30
2023-02-08T03:15:35.958Z,94.40
2023-02-08T03:19:02.850Z,94.49
2023-02-08T03:22:10.883Z,94.53
2023-02-08T03:25:21.847Z,94.28
2023-02-08T03:28:41.845Z,94.15
2023-02-08T03:31:48.985Z,94.05
2023-02-08T03:35:26.891Z,94.20
2023-02-08T03:38:35.868Z,93.87
2023-02-08T03:41:43.936Z,93.76
2023-02-08T03:44:52.996Z,93.80
2023-02-08T03:47:55.005Z,93.85
2023-02-08T03:51:02.957Z,93.91
2023-02-08T03:54:04.944Z,94.41
2023-02-08T03:57:14.926Z,94.40
2023-02-08T04:00:24.911Z,94.39
2023-02-08T04:03:34.953Z,94.46
2023-02-08T04:06:36.959Z,94.39
2023-02-08T04:09:39.950Z,94.32
2023-02-08T04:12:42.104Z,94.34
2023-02-08T04:15:43.987Z,94.19
2023-02-08T04:18:46.022Z,94.37
2023-02-08T04:21:49.009Z,94.37
2023-02-08T04:24:52.982Z,94.51
2023-02-08T04:27:54.994Z,94.60
2023-02-08T04:30:57.126Z,94.55
2023-02-08T04:33:59.970Z,94.80
2023-02-08T04:37:04.005Z,94.84
2023-02-08T04:40:05.971Z,94.62
2023-02-08T04:43:00.997Z,94.72
2023-02-08T04:45:43.084Z,94.51
2023-02-08T04:48:33.020Z,94.59
2023-02-08T04:51:21.001Z,94.50
2023-02-08T04:54:16.157Z,94.66
2023-02-08T04:57:19.209Z,94.54
2023-02-08T05:00:26.144Z,94.11
2023-02-08T05:03:29.066Z,94.13
2023-02-08T05:06:31.988Z,94.18
2023-02-08T05:09:34.441Z,94.00
2023-02-08T05:12:39.070Z,93.71
2023-02-08T05:15:42.526Z,93.53
2023-02-08T05:18:46.063Z,93.67
2023-02-08T05:21:48.093Z,93.34
2023-02-08T05:24:51.057Z,93.09
2023-02-08T05:27:54.132Z,93.12
2023-02-08T05:30:56.146Z,93.07
2023-02-08T05:33:58.180Z,93.07
2023-02-08T05:37:00.050Z,92.94
2023-02-08T05:40:03.118Z,93.21
2023-02-08T05:43:06.104Z,92.95
2023-02-08T05:46:08.075Z,92.83
2023-02-08T05:49:11.331Z,92.91
2023-02-08T05:52:14.087Z,92.53
2023-02-08T05:55:17.282Z,92.76
2023-02-08T05:58:20.112Z,92.88
2023-02-08T06:01:27.225Z,92.68
2023-02-08T06:04:30.124Z,92.79
2023-02-08T06:07:32.125Z,92.78
2023-02-08T06:10:34.168Z,92.71
2023-02-08T06:13:36.229Z,92.58
2023-02-08T06:16:39.178Z,92.68
2023-02-08T06:19:43.165Z,92.39
2023-02-08T06:22:52.146Z,92.27
2023-02-08T06:25:49.201Z,93.48
2023-02-08T06:29:13.245Z,95.12
2023-02-08T06:32:18.050Z,93.34
2023-02-08T06:35:23.393Z,91.44
2023-02-08T06:38:27.215Z,90.41
2023-02-08T06:41:32.295Z,86.86
2023-02-08T06:44:34.452Z,83.00
2023-02-08T06:47:42.465Z,76.97
2023-02-08T06:50:45.172Z,71.99
2023-02-08T06:53:47.755Z,65.97
2023-02-08T06:56:49.252Z,61.44
2023-02-08T06:59:51.380Z,58.76
2023-02-08T10:24:14.978Z,28.59
2023-02-08T10:27:25.018Z,28.64
2023-02-08T10:30:36.520Z,28.66
2023-02-08T10:34:08.669Z,28.92
2023-02-08T10:37:10.032Z,29.37
2023-02-08T10:40:13.120Z,29.23
2023-02-08T10:43:37.104Z,29.03
2023-02-08T10:46:51.080Z,28.84
2023-02-08T10:50:02.669Z,28.65
2023-02-08T10:53:04.094Z,28.51
2023-02-08T10:56:04.077Z,28.37
2023-02-08T10:59:08.092Z,28.78
2023-02-08T11:02:09.063Z,29.30
2023-02-08T11:05:12.153Z,29.41
2023-02-08T11:08:26.219Z,29.93
2023-02-08T11:11:26.559Z,29.93
2023-02-08T11:14:45.471Z,30.01
2023-02-08T11:17:49.104Z,29.87
2023-02-08T11:20:52.143Z,29.78
2023-02-08T11:23:58.700Z,29.96
2023-02-08T11:27:00.167Z,30.21
2023-02-08T11:30:02.132Z,30.03
2023-02-08T11:33:22.173Z,29.86
2023-02-08T11:36:29.057Z,29.95
2023-02-08T11:39:35.180Z,29.95
2023-02-08T11:42:38.194Z,29.83
2023-02-08T11:45:42.558Z,29.81
2023-02-08T11:48:57.245Z,30.18
2023-02-08T11:51:59.150Z,30.03
2023-02-08T11:55:01.354Z,30.07
2023-02-08T11:58:15.169Z,30.04
2023-02-08T12:01:30.238Z,30.40
2023-02-08T12:04:31.296Z,30.23
2023-02-08T12:07:44.175Z,30.39
2023-02-08T12:10:56.216Z,30.26
2023-02-08T12:14:03.195Z,30.46
2023-02-08T12:17:06.226Z,30.29
2023-02-08T12:20:22.186Z,30.52
2023-02-08T12:23:32.233Z,30.37
2023-02-08T12:26:41.179Z,30.29
2023-02-08T12:29:57.260Z,30.41
2023-02-08T12:33:19.344Z,30.52
2023-02-08T12:36:30.463Z,30.84
2023-02-08T12:40:02.432Z,30.80
2023-02-08T12:43:02.529Z,30.98
2023-02-08T12:46:39.318Z,30.96
2023-02-08T12:50:02.423Z,31.28
2023-02-08T12:53:09.291Z,31.32
2023-02-08T12:56:22.318Z,31.62
2023-02-08T12:59:38.331Z,32.01
2023-02-08T13:02:52.301Z,32.29
2023-02-08T13:06:02.141Z,32.43
2023-02-08T13:09:59.318Z,32.52
2023-02-08T13:13:03.294Z,32.30
2023-02-08T13:16:16.453Z,32.97
2023-02-08T13:20:00.643Z,33.38
2023-02-08T13:23:02.433Z,33.53
2023-02-08T13:26:05.316Z,33.91
2023-02-08T13:29:11.462Z,34.09
2023-02-08T13:32:15.295Z,34.15
2023-02-08T13:35:33.365Z,34.47
2023-02-08T13:38:43.328Z,34.93
2023-02-08T13:41:45.321Z,35.43
2023-02-08T13:44:51.364Z,35.86
2023-02-08T13:48:01.731Z,36.26
2023-02-08T13:51:07.371Z,36.40
2023-02-08T13:54:09.248Z,37.13
2023-02-08T13:57:13.479Z,37.35
2023-02-08T14:00:49.516Z,37.73
2023-02-08T14:03:53.545Z,38.27
2023-02-08T14:07:06.644Z,38.73
2023-02-08T14:10:21.621Z,39.16
2023-02-08T14:13:52.523Z,39.86
2023-02-08T14:16:57.391Z,40.45
2023-02-08T14:19:59.823Z,40.89
2023-02-08T14:23:15.268Z,41.87
2023-02-08T14:26:21.427Z,42.48
2023-02-08T14:29:39.054Z,43.06
2023-02-08T14:32:44.620Z,43.75
2023-02-08T14:35:47.792Z,44.75
2023-02-08T14:39:39.442Z,45.84
2023-02-08T14:43:08.461Z,46.48
2023-02-08T14:46:51.764Z,47.53
2023-02-08T14:49:53.567Z,48.36
2023-02-08T14:53:02.685Z,48.87
2023-02-08T14:56:16.853Z,49.51
2023-02-08T14:59:28.525Z,50.14
2023-02-08T15:02:37.504Z,50.55
2023-02-08T15:05:44.732Z,51.18
2023-02-08T15:08:49.308Z,51.71
2023-02-08T15:11:54.546Z,52.44
2023-02-08T15:14:56.478Z,52.92
2023-02-08T15:17:58.534Z,53.35
2023-02-08T15:20:59.570Z,53.85
2023-02-08T15:24:14.069Z,54.26
2023-02-08T15:27:14.598Z,54.45
2023-02-08T15:30:16.484Z,54.67
2023-02-08T15:37:31.182Z,55.51
2023-02-08T15:40:43.964Z,56.04
2023-02-08T15:43:47.544Z,56.47
2023-02-08T15:46:49.564Z,57.12
2023-02-08T15:49:56.584Z,57.41
2023-02-08T15:52:58.548Z,57.79
2023-02-08T15:56:08.175Z,58.07
2023-02-08T15:59:10.633Z,58.51
2023-02-08T16:02:10.597Z,58.89
2023-02-08T16:05:12.573Z,59.54
2023-02-08T19:21:36.946Z,76.65
2023-02-08T19:24:38.334Z,76.49
2023-02-08T19:27:39.365Z,77.05
2023-02-08T19:30:39.391Z,76.66
2023-02-08T19:33:39.330Z,76.82
2023-02-08T19:36:41.411Z,76.78
2023-02-08T19:39:44.503Z,76.95
2023-02-08T19:42:46.405Z,77.02
2023-02-08T19:45:50.445Z,76.74
2023-02-08T19:48:50.347Z,77.04
2023-02-08T19:51:54.002Z,76.73
2023-02-08T19:54:55.388Z,76.73
2023-02-08T19:58:02.918Z,76.45
2023-02-08T20:01:03.376Z,76.10
2023-02-08T20:04:05.293Z,76.27
2023-02-08T20:07:06.394Z,76.48
2023-02-08T20:10:06.470Z,76.36
2023-02-08T20:13:07.440Z,76.61
2023-02-08T20:16:12.543Z,76.57
2023-02-08T20:19:17.702Z,76.96
2023-02-08T20:22:18.701Z,77.00
2023-02-08T20:25:29.636Z,76.94
2023-02-08T20:28:32.578Z,76.81
2023-02-08T20:31:38.477Z,76.84
2023-02-08T20:34:53.996Z,77.13
2023-02-08T20:38:01.482Z,76.91
2023-02-08T20:41:02.445Z,76.70
2023-02-08T20:44:05.482Z,76.59
2023-02-08T20:47:07.450Z,76.42
2023-02-08T20:50:18.170Z,76.62
2023-02-08T20:53:20.602Z,77.06
2023-02-08T20:56:28.072Z,77.57
2023-02-08T20:59:31.538Z,78.09
2023-02-08T21:02:36.709Z,78.41
2023-02-08T21:05:38.769Z,78.56
2023-02-08T21:09:04.867Z,78.88
2023-02-08T21:12:07.585Z,79.51
2023-02-08T21:15:08.820Z,79.70
2023-02-08T21:18:13.322Z,79.69
2023-02-08T21:21:13.535Z,79.96
2023-02-08T21:24:19.009Z,80.01
2023-02-08T21:27:24.728Z,79.91
2023-02-08T21:30:27.679Z,79.80
2023-02-08T21:33:29.851Z,79.72
2023-02-08T21:36:34.529Z,79.96
2023-02-08T21:39:36.543Z,79.82
2023-02-08T21:42:40.194Z,79.79
2023-02-08T21:45:43.645Z,79.92
2023-02-08T21:49:02.545Z,79.83
2023-02-08T21:52:22.562Z,79.59
2023-02-08T21:55:29.088Z,79.41
2023-02-08T21:58:36.149Z,79.62
2023-02-08T22:01:40.183Z,79.53
2023-02-08T22:05:08.554Z,79.34
2023-02-08T22:08:23.865Z,79.12
2023-02-08T22:14:58.594Z,79.44
2023-02-08T22:18:11.077Z,79.34
2023-02-08T22:21:15.907Z,79.45
2023-02-08T22:24:18.912Z,79.31
2023-02-08T22:27:18.639Z,79.50
2023-02-08T22:30:22.831Z,79.43
2023-02-08T22:33:24.731Z,79.37
2023-02-08T22:36:24.694Z,79.06
2023-02-08T22:39:25.650Z,78.99
2023-02-08T22:42:28.662Z,78.65
2023-02-08T22:45:29.660Z,78.48
2023-02-08T22:48:30.040Z,78.44
2023-02-08T22:51:30.676Z,78.21
2023-02-08T22:54:32.670Z,78.11
2023-02-08T22:57:33.690Z,77.92
2023-02-08T23:00:33.662Z,77.78
2023-02-08T23:03:33.652Z,78.13
2023-02-08T23:06:34.749Z,78.24
2023-02-08T23:09:37.682Z,78.35
2023-02-08T23:12:40.951Z,78.50
2023-02-08T23:15:41.744Z,78.39
2023-02-08T23:18:42.704Z,78.79
2023-02-08T23:21:42.663Z,78.88
2023-02-08T23:24:45.957Z,79.17
2023-02-08T23:27:38.821Z,79.36
2023-02-08T23:30:38.756Z,79.48
2023-02-08T23:33:38.711Z,79.49
2023-02-08T23:36:38.789Z,79.51
2023-02-08T23:39:38.780Z,79.43
2023-02-08T23:42:39.723Z,79.40
2023-02-08T23:45:39.729Z,79.32
2023-02-08T23:48:39.752Z,79.48
2023-02-08T23:51:39.793Z,79.28
2023-02-08T23:54:40.901Z,79.45
2023-02-08T23:57:48.765Z,79.42
